FW9306 Weather Reports


Display with metric or nautical units.
time (UTC)temp
F
wind
direction
speed
MPH
gust
MPH
rain 1hr
in
rain 24hr
in
rain mn
in
humidity
%
barometer
mb
20240521232330 90 279 9.0 9.0 0.00 0.00 0.00 12 1008.5
20240521231829 90 243 9.0 10.0 0.00 0.00 0.00 12 1008.5
20240521231328 90 235 13.0 16.0 0.00 0.00 0.00 10 1008.6
20240521230827 91 277 11.0 13.0 0.00 0.00 0.00 10 1008.7
20240521230314 90 264 5.0 8.0 0.00 0.00 0.00 12 1008.4
20240521225814 90 336 10.0 11.0 0.00 0.00 0.00 13 1008.5
20240521225312 90 308 8.0 10.0 0.00 0.00 0.00 12 1008.6
20240521224812 90 293 8.0 10.0 0.00 0.00 0.00 12 1008.6
20240521224310 90 256 7.0 8.0 0.00 0.00 0.00 11 1008.7
20240521223810 91 316 3.0 5.0 0.00 0.00 0.00 12 1008.5
20240521223308 90 306 13.0 16.0 0.00 0.00 0.00 11 1008.7
20240521222806 89 327 7.0 8.0 0.00 0.00 0.00 12 1008.6
20240521222306 90 307 7.0 8.0 0.00 0.00 0.00 11 1009.0
20240521221805 89 295 11.0 13.0 0.00 0.00 0.00 12 1008.7
20240521221304 89 279 6.0 7.0 0.00 0.00 0.00 12 1009.1
20240521220803 89 291 5.0 6.0 0.00 0.00 0.00 15 1009.0
20240521220303 90 264 8.0 9.0 0.00 0.00 0.00 12 1009.1
20240521215801 90 321 5.0 6.0 0.00 0.00 0.00 17 1009.2
20240521215259 90 291 7.0 10.0 0.00 0.00 0.00 14 1009.3
20240521214759 89 293 3.0 5.0 0.00 0.00 0.00 12 1009.1
20240521214258 89 282 7.0 9.0 0.00 0.00 0.00 14 1009.2
20240521213756 90 339 6.0 8.0 0.00 0.00 0.00 12 1009.3
20240521213255 89 280 5.0 7.0 0.00 0.00 0.00 13 1009.4
20240521212754 89 262 6.0 7.0 0.00 0.00 0.00 12 1009.3
20240521212252 90 321 8.0 9.0 0.00 0.00 0.00 14 1009.4
20240521211751 90 33 1.0 2.0 0.00 0.00 0.00 13 1009.6
20240521211250 90 8 5.0 7.0 0.00 0.00 0.00 13 1009.9
20240521210749 89 311 2.0 2.0 0.00 0.00 0.00 13 1009.5
20240521210247 88 230 3.0 5.0 0.00 0.00 0.00 13 1009.5
20240521205747 88 301 10.0 11.0 0.00 0.00 0.00 14 1009.6
20240521205247 88 219 5.0 7.0 0.00 0.00 0.00 14 1009.6
20240521204745 87 256 10.0 11.0 0.00 0.00 0.00 14 1009.8
20240521204243 87 234 3.0 3.0 0.00 0.00 0.00 15 1009.8
20240521203741 88 193 8.0 10.0 0.00 0.00 0.00 15 1009.7
20240521203239 88 218 12.0 13.0 0.00 0.00 0.00 15 1009.7
20240521202738 90 206 7.0 8.0 0.00 0.00 0.00 15 1009.9
20240521202237 88 108 1.0 1.0 0.00 0.00 0.00 14 1010.2
20240521201737 88 41 4.0 5.0 0.00 0.00 0.00 14 1010.2
20240521201235 87 243 2.0 2.0 0.00 0.00 0.00 16 1010.2
20240521200735 87 276 6.0 7.0 0.00 0.00 0.00 15 1010.3
20240521200235 87 0 5.0 7.0 0.00 0.00 0.00 19 1010.3
20240521195734 87 275 7.0 8.0 0.00 0.00 0.00 18 1010.4
20240521195232 86 356 2.0 2.0 0.00 0.00 0.00 15 1010.5
20240521194731 86 294 8.0 10.0 0.00 0.00 0.00 18 1010.3
20240521194231 87 290 7.0 7.0 0.00 0.00 0.00 15 1010.4
20240521193729 86 322 6.0 7.0 0.00 0.00 0.00 17 1010.6
20240521193228 85 266 7.0 8.0 0.00 0.00 0.00 22 1010.6
20240521192727 86 283 5.0 6.0 0.00 0.00 0.00 16 1010.6
20240521192227 86 347 4.0 5.0 0.00 0.00 0.00 17 1010.7
20240521191726 85 225 6.0 7.0 0.00 0.00 0.00 17 1010.8
20240521191225 85 279 7.0 8.0 0.00 0.00 0.00 17 1011.0
20240521190725 86 286 9.0 11.0 0.00 0.00 0.00 18 1011.1
20240521190224 84 311 4.0 6.0 0.00 0.00 0.00 18 1010.8
20240521185723 85 279 9.0 11.0 0.00 0.00 0.00 17 1011.0
20240521185223 86 72 3.0 3.0 0.00 0.00 0.00 17 1010.8
20240521184723 84 219 2.0 2.0 0.00 0.00 0.00 18 1011.1
20240521184222 85 271 5.0 6.0 0.00 0.00 0.00 19 1011.1
20240521183721 84 206 3.0 5.0 0.00 0.00 0.00 20 1011.4
20240521183220 84 217 6.0 8.0 0.00 0.00 0.00 19 1011.4
20240521182719 84 289 9.0 11.0 0.00 0.00 0.00 19 1011.5
20240521182217 84 195 10.0 13.0 0.00 0.00 0.00 20 1011.6
20240521181716 84 204 1.0 2.0 0.00 0.00 0.00 20 1011.4
20240521181215 83 280 5.0 6.0 0.00 0.00 0.00 21 1011.4
20240521180715 84 293 6.0 7.0 0.00 0.00 0.00 21 1011.5
20240521180215 83 29 16.0 25.0 0.00 0.00 0.00 25 1011.5
20240521175715 82 213 4.0 5.0 0.00 0.00 0.00 22 1011.2
20240521175213 82 202 4.0 5.0 0.00 0.00 0.00 24 1011.6
20240521174712 82 199 3.0 5.0 0.00 0.00 0.00 24 1011.6
20240521174210 82 245 10.0 10.0 0.00 0.00 0.00 22 1011.7
20240521173708 82 109 1.0 1.0 0.00 0.00 0.00 22 1011.5
20240521173208 82 226 3.0 3.0 0.00 0.00 0.00 24 1011.7
20240521172706 81 240 3.0 3.0 0.00 0.00 0.00 24 1011.8
20240521172204 82 247 9.0 10.0 0.00 0.00 0.00 23 1011.9
20240521171703 82 221 9.0 10.0 0.00 0.00 0.00 24 1011.7
20240521171202 81 171 3.0 3.0 0.00 0.00 0.00 25 1011.9
20240521170702 81 196 3.0 3.0 0.00 0.00 0.00 24 1011.9
20240521170201 80 228 6.0 7.0 0.00 0.00 0.00 25 1012.1
20240521165658 80 266 5.0 6.0 0.00 0.00 0.00 25 1011.8
20240521165157 80 242 3.0 3.0 0.00 0.00 0.00 25 1012.0
20240521164655 81 201 12.0 14.0 0.00 0.00 0.00 24 1011.9
20240521164155 80 225 5.0 6.0 0.00 0.00 0.00 24 1011.8
20240521163653 80 204 14.0 16.0 0.00 0.00 0.00 24 1012.0
20240521163151 81 205 12.0 14.0 0.00 0.00 0.00 24 1012.2
20240521162649 80 266 5.0 6.0 0.00 0.00 0.00 25 1011.8
20240521162146 80 252 8.0 9.0 0.00 0.00 0.00 23 1012.0
20240521161644 80 269 4.0 5.0 0.00 0.00 0.00 24 1011.8
20240521161143 79 240 3.0 3.0 0.00 0.00 0.00 25 1012.0
20240521160643 79 225 4.0 5.0 0.00 0.00 0.00 25 1012.0
20240521160142 78 272 4.0 5.0 0.00 0.00 0.00 26 1012.0
20240521155640 79 268 3.0 3.0 0.00 0.00 0.00 25 1011.9
20240521155139 78 200 1.0 1.0 0.00 0.00 0.00 26 1012.1
20240521154635 78 228 6.0 7.0 0.00 0.00 0.00 27 1012.0
20240521154134 78 175 2.0 2.0 0.00 0.00 0.00 27 1012.2
20240521153633 77 243 6.0 7.0 0.00 0.00 0.00 28 1012.0
20240521153132 77 221 3.0 5.0 0.00 0.00 0.00 28 1012.2
20240521152627 77 230 6.0 7.0 0.00 0.00 0.00 28 1012.1
20240521152127 77 226 5.0 6.0 0.00 0.00 0.00 27 1012.0
20240521151627 76 184 4.0 5.0 0.00 0.00 0.00 29 1012.1
20240521151126 76 190 4.0 5.0 0.00 0.00 0.00 28 1012.1
20240521150625 76 197 3.0 3.0 0.00 0.00 0.00 29 1012.0
20240521150125 76 205 3.0 3.0 0.00 0.00 0.00 29 1012.0
20240521145622 75 212 4.0 5.0 0.00 0.00 0.00 29 1011.9
20240521145121 75 198 4.0 5.0 0.00 0.00 0.00 30 1011.9
20240521144618 74 205 3.0 3.0 0.00 0.00 0.00 31 1012.1
20240521144115 75 211 3.0 5.0 0.00 0.00 0.00 30 1012.1
20240521143614 75 128 3.0 3.0 0.00 0.00 0.00 30 1011.9
20240521143114 73 165 2.0 2.0 0.00 0.00 0.00 31 1012.2
20240521142612 72 173 0.0 1.0 0.00 0.00 0.00 32 1011.9
20240521142112 71 156 1.0 1.0 0.00 0.00 0.00 33 1011.9
20240521141608 70 200 2.0 2.0 0.00 0.00 0.00 35 1011.9
20240521141107 69 139 2.0 2.0 0.00 0.00 0.00 35 1011.9
20240521140604 69 191 0.0 1.0 0.00 0.00 0.00 36 1012.1
20240521140045 68 177 1.0 2.0 0.00 0.00 0.00 38 1011.8
20240521135543 67 194 2.0 2.0 0.00 0.00 0.00 38 1011.7
20240521135042 66 182 4.0 5.0 0.00 0.00 0.00 38 1011.9
20240521134540 66 139 1.0 2.0 0.00 0.00 0.00 38 1011.9
20240521134039 66 182 3.0 3.0 0.00 0.00 0.00 39 1011.8
20240521133537 64 162 1.0 1.0 0.00 0.00 0.00 41 1011.8
20240521133036 64 199 2.0 2.0 0.00 0.00 0.00 42 1011.5
20240521132534 64 198 2.0 2.0 0.00 0.00 0.00 41 1011.8
20240521132034 63 180 1.0 1.0 0.00 0.00 0.00 42 1011.7
20240521131531 64 166 0.0 0.0 0.00 0.00 0.00 41 1011.8
20240521131031 63 216 1.0 1.0 0.00 0.00 0.00 41 1011.8
20240521130530 63 159 0.0 0.0 0.00 0.00 0.00 42 1011.8
20240521130029 61 182 0.0 1.0 0.00 0.00 0.00 43 1011.4
20240521125528 60 140 1.0 2.0 0.00 0.00 0.00 44 1011.5
20240521125026 60 194 2.0 2.0 0.00 0.00 0.00 45 1011.5
20240521124525 60 198 2.0 2.0 0.00 0.00 0.00 45 1011.4
20240521124024 60 196 2.0 2.0 0.00 0.00 0.00 45 1011.4
20240521123523 61 194 2.0 2.0 0.00 0.00 0.00 44 1011.2
20240521123021 61 189 1.0 1.0 0.00 0.00 0.00 44 1011.4
20240521122519 60 179 2.0 2.0 0.00 0.00 0.00 45 1011.0
20240521122018 60 177 1.0 1.0 0.00 0.00 0.00 45 1010.9
20240521121516 61 186 1.0 2.0 0.00 0.00 0.00 45 1011.0
20240521121016 61 167 2.0 3.0 0.00 0.00 0.00 44 1011.0
20240521120513 61 190 0.0 0.0 0.00 0.00 0.00 44 1011.0
20240521120012 60 188 0.0 1.0 0.00 0.00 0.00 44 1010.9
20240521115511 60 191 0.0 1.0 0.00 0.00 0.00 45 1010.9
20240521115010 60 185 1.0 1.0 0.00 0.00 0.00 44 1010.7
20240521114509 61 199 3.0 3.0 0.00 0.00 0.00 44 1010.6
20240521114008 61 163 1.0 1.0 0.00 0.00 0.00 42 1010.7
20240521113506 61 189 0.0 0.0 0.00 0.00 0.00 44 1010.6
20240521113005 61 188 0.0 0.0 0.00 0.00 0.00 43 1010.8
20240521112502 61 185 1.0 2.0 0.00 0.00 0.00 44 1010.8
20240521112001 61 197 3.0 3.0 0.00 0.00 0.00 44 1010.9
20240521111500 62 189 3.0 3.0 0.00 0.00 0.00 43 1010.7
20240521110958 61 183 0.0 0.0 0.00 0.00 0.00 43 1010.8
20240521110458 61 186 1.0 1.0 0.00 0.00 0.00 44 1010.8
20240521105956 62 183 1.0 1.0 0.00 0.00 0.00 43 1010.7
20240521105456 62 201 1.0 1.0 0.00 0.00 0.00 42 1010.9
20240521104955 62 182 0.0 0.0 0.00 0.00 0.00 42 1010.9
20240521104453 62 187 0.0 0.0 0.00 0.00 0.00 42 1011.0
20240521103951 61 187 0.0 0.0 0.00 0.00 0.00 43 1010.9
20240521103449 62 201 1.0 1.0 0.00 0.00 0.00 43 1010.9
20240521102947 62 189 1.0 1.0 0.00 0.00 0.00 43 1010.9
20240521102446 62 217 0.0 0.0 0.00 0.00 0.00 43 1011.0
20240521101945 62 191 0.0 1.0 0.00 0.00 0.00 43 1010.8
20240521101444 62 184 0.0 1.0 0.00 0.00 0.00 43 1010.8
20240521100943 62 182 1.0 1.0 0.00 0.00 0.00 43 1010.7
20240521100441 63 169 0.0 1.0 0.00 0.00 0.00 43 1010.9
20240521095939 63 188 0.0 1.0 0.00 0.00 0.00 42 1010.8
20240521095438 64 201 1.0 2.0 0.00 0.00 0.00 41 1010.8
20240521094937 65 151 0.0 0.0 0.00 0.00 0.00 39 1011.0
20240521094435 65 150 1.0 1.0 0.00 0.00 0.00 39 1010.8
20240521093934 65 178 1.0 2.0 0.00 0.00 0.00 39 1010.9
20240521093432 64 145 1.0 1.0 0.00 0.00 0.00 39 1010.8
20240521092931 65 186 0.0 0.0 0.00 0.00 0.00 39 1010.9
20240521092430 65 179 0.0 1.0 0.00 0.00 0.00 39 1011.0
20240521091928 65 185 0.0 1.0 0.00 0.00 0.00 39 1010.9
20240521091427 66 165 0.0 1.0 0.00 0.00 0.00 38 1010.9
20240521090927 66 194 1.0 1.0 0.00 0.00 0.00 36 1011.0
20240521090425 67 165 0.0 0.0 0.00 0.00 0.00 37 1011.1
20240521085923 67 163 1.0 1.0 0.00 0.00 0.00 36 1011.0
20240521085421 67 180 0.0 0.0 0.00 0.00 0.00 36 1011.0
20240521084920 66 121 1.0 1.0 0.00 0.00 0.00 36 1011.0
20240521084419 65 13 3.0 3.0 0.00 0.00 0.00 38 1011.2
20240521083917 65 285 0.0 0.0 0.00 0.00 0.00 38 1011.0
20240521083417 65 183 1.0 2.0 0.00 0.00 0.00 38 1010.9
20240521082916 65 172 1.0 1.0 0.00 0.00 0.00 38 1010.9
20240521082415 66 176 0.0 1.0 0.00 0.00 0.00 37 1010.9
20240521081915 66 187 0.0 0.0 0.00 0.00 0.00 37 1010.8
20240521081413 67 180 1.0 1.0 0.00 0.00 0.00 36 1011.1
20240521080913 66 152 2.0 2.0 0.00 0.00 0.00 36 1011.2
20240521080411 66 162 1.0 1.0 0.00 0.00 0.00 37 1011.2
20240521075911 66 162 1.0 1.0 0.00 0.00 0.00 37 1011.2
20240521075409 66 186 1.0 1.0 0.00 0.00 0.00 37 1011.4
20240521074909 66 185 1.0 1.0 0.00 0.00 0.00 36 1011.2
20240521074408 66 148 1.0 2.0 0.00 0.00 0.00 36 1011.5
20240521073907 66 178 0.0 0.0 0.00 0.00 0.00 36 1010.9
20240521073407 66 182 1.0 1.0 0.00 0.00 0.00 36 1011.6
20240521072906 66 181 1.0 2.0 0.00 0.00 0.00 36 1011.5
20240521072404 66 145 0.0 1.0 0.00 0.00 0.00 36 1011.4
20240521071902 65 177 0.0 1.0 0.00 0.00 0.00 37 1011.4
20240521071401 66 185 1.0 1.0 0.00 0.00 0.00 36 1011.4
20240521070901 66 189 0.0 1.0 0.00 0.00 0.00 36 1011.6
20240521070359 67 209 1.0 1.0 0.00 0.00 0.00 34 1011.4
20240521065857 67 200 0.0 0.0 0.00 0.00 0.00 35 1011.5
20240521065355 67 185 0.0 0.0 0.00 0.00 0.00 35 1011.5
20240521064851 67 175 0.0 0.0 0.00 0.00 0.00 34 1011.4
20240521064350 68 164 3.0 3.0 0.00 0.00 0.00 33 1011.2
20240521063851 69 194 2.0 3.0 0.00 0.00 0.00 33 1011.2
20240521063349 69 162 2.0 3.0 0.00 0.00 0.00 33 1011.4
20240521062848 69 187 1.0 2.0 0.00 0.00 0.00 32 1011.2
20240521062347 69 169 2.0 3.0 0.00 0.00 0.00 32 1011.4
20240521061847 70 192 1.0 1.0 0.00 0.00 0.00 32 1011.2
20240521061346 71 186 1.0 2.0 0.00 0.00 0.00 32 1011.2
20240521060844 71 130 1.0 2.0 0.00 0.00 0.00 31 1011.5
20240521060344 71 174 1.0 2.0 0.00 0.00 0.00 31 1011.2
20240521055842 72 192 0.0 1.0 0.00 0.00 0.00 31 1011.2
20240521055340 72 193 1.0 1.0 0.00 0.00 0.00 31 1011.2
20240521054839 72 189 2.0 2.0 0.00 0.00 0.00 30 1011.4
20240521054339 72 191 2.0 2.0 0.00 0.00 0.00 30 1011.4
20240521053838 71 189 1.0 1.0 0.00 0.00 0.00 30 1011.2
20240521053337 71 196 1.0 1.0 0.00 0.00 0.00 31 1011.6
20240521052836 71 195 2.0 2.0 0.00 0.00 0.00 30 1011.2
20240521052334 70 192 2.0 2.0 0.00 0.00 0.00 30 1011.6
20240521051834 70 185 0.0 1.0 0.00 0.00 0.00 30 1011.2
20240521051333 71 157 0.0 1.0 0.00 0.00 0.00 30 1011.4
20240521050830 71 169 0.0 1.0 0.00 0.00 0.00 29 1011.6
20240521050328 71 171 1.0 1.0 0.00 0.00 0.00 29 1011.5
20240521045828 71 185 0.0 1.0 0.00 0.00 0.00 29 1011.6
20240521045328 72 189 0.0 1.0 0.00 0.00 0.00 28 1011.4
20240521044826 73 203 0.0 0.0 0.00 0.00 0.00 28 1011.5
20240521044325 73 188 0.0 0.0 0.00 0.00 0.00 28 1011.6
20240521043823 73 186 3.0 3.0 0.00 0.00 0.00 27 1011.5
20240521043322 74 194 1.0 2.0 0.00 0.00 0.00 27 1011.5
20240521042821 74 158 0.0 1.0 0.00 0.00 0.00 28 1011.4
20240521042321 74 182 0.0 1.0 0.00 0.00 0.00 27 1011.7
20240521041820 75 199 1.0 1.0 0.00 0.00 0.00 27 1011.4
20240521041317 75 231 1.0 1.0 0.00 0.00 0.00 26 1011.5
20240521040814 76 165 0.0 1.0 0.00 0.00 0.00 26 1011.4
20240521040311 76 223 2.0 2.0 0.00 0.00 0.00 26 1011.5
20240521035809 76 216 1.0 2.0 0.00 0.00 0.00 25 1011.2
20240521035308 76 218 1.0 2.0 0.00 0.00 0.00 25 1011.2
20240521034808 76 233 2.0 2.0 0.00 0.00 0.00 25 1011.1
20240521034307 76 195 2.0 2.0 0.00 0.00 0.00 25 1010.9
20240521033807 77 182 2.0 2.0 0.00 0.00 0.00 25 1011.2
20240521033306 77 218 2.0 2.0 0.00 0.00 0.00 24 1011.0
20240521032805 77 193 5.0 6.0 0.00 0.00 0.00 24 1011.0
20240521032305 77 185 5.0 6.0 0.00 0.00 0.00 24 1011.0
20240521031805 78 200 3.0 3.0 0.00 0.00 0.00 25 1011.0
20240521031303 78 206 5.0 6.0 0.00 0.00 0.00 24 1011.1
20240521030802 78 195 4.0 5.0 0.00 0.00 0.00 24 1011.0
20240521030300 78 189 8.0 8.0 0.00 0.00 0.00 23 1011.0
20240521025800 78 209 4.0 5.0 0.00 0.00 0.00 23 1010.8
20240521025258 78 250 4.0 5.0 0.00 0.00 0.00 24 1010.8
20240521024758 78 190 4.0 6.0 0.00 0.00 0.00 23 1010.9
20240521024257 78 220 4.0 5.0 0.00 0.00 0.00 24 1010.8
20240521023756 79 180 1.0 1.0 0.00 0.00 0.00 25 1010.9
20240521023255 79 195 3.0 5.0 0.00 0.00 0.00 25 1010.8
20240521022754 80 175 3.0 5.0 0.00 0.00 0.00 23 1010.8
20240521022253 80 218 3.0 3.0 0.00 0.00 0.00 23 1010.6
20240521021752 80 225 4.0 5.0 0.00 0.00 0.00 24 1010.6
20240521021250 80 217 3.0 5.0 0.00 0.00 0.00 25 1010.6
20240521020748 80 210 3.0 3.0 0.00 0.00 0.00 23 1010.5
20240521020247 80 253 6.0 7.0 0.00 0.00 0.00 23 1010.6
20240521015744 80 193 1.0 1.0 0.00 0.00 0.00 24 1010.7
20240521015242 80 182 2.0 2.0 0.00 0.00 0.00 24 1010.8
20240521014741 79 177 2.0 2.0 0.00 0.00 0.00 23 1010.6
20240521014236 79 163 0.0 1.0 0.00 0.00 0.00 23 1010.6
20240521013736 79 222 2.0 2.0 0.00 0.00 0.00 24 1010.6
20240521013235 80 241 2.0 3.0 0.00 0.00 0.00 28 1010.6
20240521012731 80 156 0.0 0.0 0.00 0.00 0.00 23 1010.9
20240521012227 80 253 1.0 1.0 0.00 0.00 0.00 24 1010.7
20240521011717 81 136 1.0 1.0 0.00 0.00 0.00 22 1010.5
20240521011216 81 112 2.0 2.0 0.00 0.00 0.00 22 1010.6
20240521010715 81 152 1.0 2.0 0.00 0.00 0.00 22 1010.8
20240521010213 81 102 4.0 5.0 0.00 0.00 0.00 22 1010.8
20240521005712 81 70 3.0 3.0 0.00 0.00 0.00 21 1010.9
20240521005212 80 172 1.0 1.0 0.00 0.00 0.00 22 1010.8
20240521004710 80 124 0.0 0.0 0.00 0.00 0.00 23 1011.1
20240521004209 80 10 2.0 2.0 0.00 0.00 0.00 22 1011.2
20240521003707 80 28 3.0 3.0 0.00 0.00 0.00 22 1011.2
20240521003206 80 8 4.0 5.0 0.00 0.00 0.00 22 1011.2
20240521002704 80 46 1.0 2.0 0.00 0.00 0.00 23 1011.4
20240521002203 80 43 2.0 2.0 0.00 0.00 0.00 23 1011.4
20240521001701 80 36 3.0 3.0 0.00 0.00 0.00 23 1011.1
20240521001200 80 61 3.0 3.0 0.00 0.00 0.00 23 1011.0
20240521000658 80 45 4.0 5.0 0.00 0.00 0.00 22 1011.4
20240521000156 80 40 4.0 6.0 0.00 0.00 0.00 22 1011.5
20240520235654 80 33 3.0 5.0 0.00 0.00 0.00 22 1011.5
20240520235153 80 50 5.0 7.0 0.00 0.00 0.00 22 1011.6
20240520234653 80 24 5.0 7.0 0.00 0.00 0.00 22 1011.7
20240520234152 80 15 4.0 5.0 0.00 0.00 0.00 22 1012.0
20240520233651 80 17 7.0 14.0 0.00 0.00 0.00 22 1012.2
20240520233150 80 357 7.0 9.0 0.00 0.00 0.00 22 1012.4